createdAt,value
2022-10-05T00:03:51.010Z,45.90
2022-10-05T00:09:21.639Z,46.30
2022-10-05T00:20:26.741Z,47.20
2022-10-05T00:26:11.149Z,36.60
2022-10-05T00:31:41.191Z,40.00
2022-10-05T00:37:26.060Z,32.30
2022-10-05T00:43:18.008Z,35.80
2022-10-05T00:49:01.962Z,36.70
2022-10-05T00:54:53.920Z,29.80
2022-10-05T01:00:24.880Z,29.70
2022-10-05T01:06:22.741Z,26.70
2022-10-05T01:12:18.886Z,20.80
2022-10-05T01:18:08.922Z,25.70
2022-10-05T01:24:16.582Z,25.00
2022-10-05T01:30:18.017Z,29.10
2022-10-05T01:36:32.928Z,25.00
2022-10-05T01:42:59.949Z,31.40
2022-10-05T01:48:47.113Z,31.80
2022-10-05T01:54:50.139Z,30.90
2022-10-05T02:00:23.099Z,32.50
2022-10-05T02:06:43.829Z,31.50
2022-10-05T02:12:14.833Z,28.00
2022-10-05T02:17:50.324Z,21.80
2022-10-05T02:23:32.482Z,19.80
2022-10-05T02:29:06.055Z,18.50
2022-10-05T02:34:48.406Z,20.20
2022-10-05T02:41:02.013Z,23.50
2022-10-05T02:47:28.595Z,19.40
2022-10-05T02:53:11.110Z,20.40
2022-10-05T02:59:06.346Z,20.00
2022-10-05T03:04:44.150Z,21.30
2022-10-05T03:10:47.291Z,19.60
2022-10-05T03:16:38.878Z,18.50
2022-10-05T03:22:24.212Z,22.90
2022-10-05T03:28:43.201Z,19.70
2022-10-05T03:35:01.154Z,21.50
2022-10-05T03:41:33.638Z,20.10
2022-10-05T03:47:46.025Z,20.70
2022-10-05T03:53:20.995Z,16.20
2022-10-05T03:59:12.490Z,17.30
2022-10-05T04:05:03.877Z,22.30
2022-10-05T04:10:35.673Z,18.00
2022-10-05T04:16:29.763Z,17.40
2022-10-05T04:22:12.361Z,17.30
2022-10-05T04:27:53.216Z,16.70
2022-10-05T04:33:16.351Z,21.70
2022-10-05T04:39:34.037Z,20.70
2022-10-05T04:45:28.459Z,22.10
2022-10-05T04:51:33.540Z,21.10
2022-10-05T04:57:10.922Z,22.90
2022-10-05T05:03:43.166Z,21.00
2022-10-05T05:09:38.309Z,24.40
2022-10-05T05:15:52.442Z,21.70
2022-10-05T05:21:38.175Z,17.20
2022-10-05T05:27:31.154Z,22.40
2022-10-05T05:33:41.307Z,17.10
2022-10-05T05:40:00.541Z,15.80
2022-10-05T05:45:57.151Z,20.90
2022-10-05T05:51:41.429Z,21.00
2022-10-05T05:57:23.276Z,16.30
2022-10-05T06:03:36.333Z,16.80
2022-10-05T06:10:00.108Z,15.00
2022-10-05T06:16:01.283Z,21.00
2022-10-05T06:21:37.695Z,41.30
2022-10-05T06:27:13.444Z,37.70
2022-10-05T06:32:50.839Z,37.40
2022-10-05T06:38:49.616Z,32.20
2022-10-05T06:44:47.136Z,53.10
2022-10-05T06:51:12.020Z,50.80
2022-10-05T06:57:01.814Z,46.70
2022-10-05T07:02:35.289Z,30.90
2022-10-05T07:09:18.230Z,17.20
2022-10-05T07:15:01.191Z,21.80
2022-10-05T07:21:15.749Z,14.60
2022-10-05T07:26:59.612Z,11.00
2022-10-05T07:32:27.915Z,9.60
2022-10-05T07:38:17.793Z,14.30
2022-10-05T07:44:02.118Z,14.80
2022-10-05T07:49:59.754Z,12.60
2022-10-05T07:55:57.752Z,10.20
2022-10-05T08:01:37.761Z,9.80
2022-10-05T08:07:16.401Z,10.40
2022-10-05T08:13:22.311Z,10.00
2022-10-05T08:18:56.997Z,6.70
2022-10-05T08:25:16.811Z,8.60
2022-10-05T08:30:55.882Z,6.40
2022-10-05T08:37:15.398Z,6.70
2022-10-05T08:43:57.497Z,7.50
2022-10-05T08:50:33.883Z,5.90
2022-10-05T08:57:43.066Z,4.70
2022-10-05T09:04:27.656Z,7.40
2022-10-05T09:10:53.468Z,11.40
2022-10-05T09:17:35.834Z,6.00
2022-10-05T09:23:46.806Z,6.00
2022-10-05T09:30:18.478Z,6.70
2022-10-05T09:37:37.304Z,9.90
2022-10-05T09:44:21.983Z,6.50
2022-10-05T09:51:20.120Z,5.40
2022-10-05T09:58:00.283Z,6.40
2022-10-05T10:04:48.822Z,4.60
2022-10-05T10:10:49.854Z,4.80
2022-10-05T10:17:24.765Z,4.70
2022-10-05T10:24:44.486Z,7.90
2022-10-05T10:31:13.966Z,7.50
2022-10-05T10:37:34.453Z,4.90
2022-10-05T10:44:02.684Z,4.30
2022-10-05T10:50:48.635Z,3.70
2022-10-05T10:58:04.494Z,7.30
2022-10-05T11:05:09.020Z,7.70
2022-10-05T11:11:51.417Z,4.70
2022-10-05T11:18:27.648Z,8.40
2022-10-05T11:24:39.421Z,10.40
2022-10-05T11:30:30.026Z,12.50
2022-10-05T11:36:53.507Z,6.80
2022-10-05T11:43:23.120Z,8.10
2022-10-05T11:49:53.683Z,8.50
2022-10-05T11:55:50.033Z,14.30
2022-10-05T12:01:42.192Z,6.40
2022-10-05T12:07:55.002Z,7.70
2022-10-05T12:14:17.527Z,8.00
2022-10-05T12:19:56.557Z,7.90
2022-10-05T12:25:56.810Z,5.30
2022-10-05T12:32:22.529Z,7.20
2022-10-05T12:38:29.355Z,6.40
2022-10-05T12:45:08.498Z,7.50
2022-10-05T12:50:36.827Z,9.00
2022-10-05T12:57:06.161Z,6.50
2022-10-05T13:03:11.237Z,14.40
2022-10-05T13:09:03.267Z,6.30
2022-10-05T13:14:59.215Z,9.90
2022-10-05T13:20:52.366Z,12.00
2022-10-05T13:26:39.409Z,7.10
2022-10-05T13:32:25.895Z,11.30
2022-10-05T13:38:24.324Z,10.60
2022-10-05T13:44:33.399Z,11.70
2022-10-05T13:50:19.441Z,17.80
2022-10-05T13:55:54.771Z,15.20
2022-10-05T14:01:53.755Z,15.20
2022-10-05T14:08:15.758Z,13.10
2022-10-05T16:30:45.039Z,31.20
2022-10-05T16:36:06.832Z,30.80
2022-10-05T16:52:00.381Z,45.60
2022-10-05T16:57:26.158Z,40.30
2022-10-05T17:03:03.959Z,40.80
2022-10-05T17:36:42.986Z,55.20
2022-10-05T18:10:23.277Z,17.00
2022-10-05T18:15:51.787Z,18.10
2022-10-05T18:21:27.276Z,19.20
2022-10-05T18:27:02.680Z,21.50
2022-10-05T18:32:41.407Z,34.60
2022-10-05T18:38:28.967Z,32.40
2022-10-05T18:44:27.917Z,19.10
2022-10-05T18:50:05.527Z,26.20
2022-10-05T18:55:39.145Z,20.80
2022-10-05T19:01:23.791Z,22.30
2022-10-05T19:07:22.419Z,26.50
2022-10-05T19:13:05.978Z,22.60
2022-10-05T19:18:47.524Z,29.80
2022-10-05T19:24:17.006Z,24.30
2022-10-05T19:29:54.359Z,18.60
2022-10-05T19:35:59.528Z,17.20
2022-10-05T19:42:07.691Z,14.40
2022-10-05T19:47:44.776Z,14.90
2022-10-05T19:53:29.215Z,20.50
2022-10-05T19:58:57.487Z,43.50
2022-10-05T20:04:56.618Z,33.00
2022-10-05T20:10:37.222Z,20.10
2022-10-05T20:16:39.566Z,18.60
2022-10-05T20:22:22.973Z,24.00
2022-10-05T20:27:59.403Z,21.30
2022-10-05T20:33:21.380Z,17.90
2022-10-05T20:38:48.789Z,15.10
2022-10-05T20:44:11.330Z,13.20
2022-10-05T20:49:44.564Z,14.40
2022-10-05T20:55:11.310Z,12.70
2022-10-05T21:00:52.983Z,11.60
2022-10-05T21:06:15.469Z,12.80
2022-10-05T21:11:52.948Z,12.50
2022-10-05T21:17:17.295Z,11.60
2022-10-05T21:22:39.303Z,24.00
2022-10-05T21:28:00.967Z,11.20
2022-10-05T21:33:29.766Z,17.60
2022-10-05T21:39:14.800Z,18.60
2022-10-05T21:44:36.819Z,18.80
2022-10-05T21:50:00.456Z,17.30
2022-10-05T21:55:22.606Z,20.40
2022-10-05T22:00:47.846Z,20.70
2022-10-05T22:06:19.537Z,24.00
2022-10-05T22:11:51.901Z,25.90
2022-10-05T22:17:21.442Z,31.70
2022-10-05T22:22:43.457Z,40.20
2022-10-05T22:28:07.364Z,46.00
2022-10-05T22:33:31.961Z,37.20
2022-10-05T22:38:56.904Z,25.30
2022-10-05T22:44:22.345Z,36.60
2022-10-05T22:49:44.675Z,22.20
2022-10-05T22:55:08.052Z,19.50
2022-10-05T23:00:53.260Z,15.20
2022-10-05T23:06:26.714Z,21.40
2022-10-05T23:11:54.595Z,13.00
2022-10-05T23:17:22.098Z,11.30
2022-10-05T23:22:56.099Z,7.80
2022-10-05T23:28:21.251Z,8.60
2022-10-05T23:33:43.838Z,12.90
2022-10-05T23:39:14.191Z,11.50
2022-10-05T23:44:51.675Z,9.70
2022-10-05T23:50:17.719Z,6.50
2022-10-05T23:55:43.368Z,5.70
